Main page
METAR-TAF:

METAR-TAF

Airports :

RNAS Culdrose (HMS Seahawk)

Culdrose, England

latitude: 50-05N, longitude: 005-15W, elevation: 78 m

Current weather observation

The report was made 25 minutes ago, at 22:26 UTC
Wind 10 kt from the Northeast
Temperature 2°C
Humidity 93%
Pressure 1004 hPa
Visibility 10 km or more
no clouds below 1500 m and no cumulonimbus

METAR: EGDR 202226Z 05010KT CAVOK 02/01 Q1004 BLU TEMPO 7000 -SHRA SCT020TCU WHT

Time: 22:51 (22:51 UTC)

Forecast

The report was made 9 hours and 13 minutes ago, at 13:38 UTC
Forecast valid from 20 at 15 UTC to 20 at 24 UTC
Wind 13 kt from the North/Northeast
Visibility 10 km or more
Few clouds at a height of 2500 ft
Probability 40% :
Temporary
from 20 at 17 UTC to 20 at 24 UTC
Visibility: 7000 m
Scattered clouds at a height of 2000 ft, Towering cumulus.
light rain showers

TAF: EGDR 201338Z 2015/2024 03013KT 9999 FEW025 PROB40 TEMPO 2017/2024 7000 -SHRA SCT020TCU

Weather observations and forecasts of more than 4000 airports (METAR and TAF reports).

The available stations are represented by yellow and red dots on the map.

Hover mouse over dot to see the name of the station.

Then click to see weather observations and forecasts.

To change the map : click on the green buttons with a black cross to zoom in, on the green button with a dash to zoom out, or on the green arrows for adjacent maps.


METAR-TAF: